ZSPD

Shanghai Pudong International

Airport
ICAO code
ZSPD
Summary
ICAO Region
APAC
ICAO Territory
Location

Pudong, Shanghai,

Coordinates
31° 8' 56" N , 121° 48' 3" E
KCC
Cfa
Airport LOS
Parallel Runway Operation
Airport WX
Tropical Revolving Storm
Metar
Observation
ZSPD 112200Z 15002MPS CAVOK 28/27 Q1006 NOSIG
Station
Shanghai / Pudong
Date/Time
2022-08-11 22:00:00
Wind direction
150°
Lowest cloud amount
clouds and visibility OK
Temperature
28°C
Dew point
27°C
Humidity
94%
QNH
1006 hPa
Weather condition
n/a

Description

International airport serving the city of Shanghai.

Climatology

Humid “subtropical” climate (Köppen climate classification Cfa) - characterized by hot, humid summers and cool winters. Significant amounts of precipitation occur in all seasons in most areas. Winter rainfall (and sometimes snowfall) is associated with large storms that the westerlies steer from west to east. Most summer rainfall occurs during thunderstorms.

Airport map

Aerial View

SKYbrary Partners:

Safety knowledge contributed by: